Terminal Aerodrome Forecast
Issued by NWS

Home | Current Version | Previous Version | Text Only | Print | Product List | Glossary On
Versions: 1 2 3 4 5 6 7 8 9 10 11 12 13
000
FTUS43 KOAX 152320
TAFSNY
TAF
KSNY 152320Z 1600/1624 27010KT P6SM BKN200
     FM160600 30008KT P6SM BKN200
     FM161600 02012G20KT P6SM SCT040 BKN100=

USA.gov is the U.S. government's official web portal to all federal, state and local government web resources and services.